Weather observations for the past three days for
Vernon, Wilbarger County Airport
Imperial (Metric)
Date Time (cdt) Wind (mph) Vis. (mi.) Weather Sky Cond. Temperature (ºF) Relative Humidity Wind Chill (°F) Heat Index (°F) Pressure Precipitation (in)
Air Dwpt 6 hour altimeter (in) sea level (mb) 1 hr 3 hr 6 hr
Max. Min.
06 07:35 NE 10 G 17 10.00 Partly Cloudy SCT030 52.3 38.3 59% 29.99 0.0
06 07:15 NE 12 10.00 Overcast OVC030 52.7 37.6 57% 29.99 0.0
06 06:55 NE 12 G 17 10.00 Overcast OVC030 52.7 37.4 53.1 51.8 56% 29.99 0.0
06 06:35 NE 9 G 17 10.00 Overcast OVC028 52.7 37.6 57% 29.98 0.0
06 06:15 NE 10 10.00 Overcast OVC028 52.7 38.3 58% 29.97 0.0
06 05:55 NE 10 10.00 Overcast OVC028 52.3 37.9 58% 29.97 0.0
06 05:35 NE 10 10.00 Overcast OVC028 52.3 39.7 62% 29.97 0.0
06 05:15 NE 12 G 17 10.00 Overcast OVC024 52.2 39.9 63% 29.97 0.0
06 04:55 NE 9 G 16 10.00 Overcast OVC022 52 41.9 69% 29.97 0.0
06 04:35 NE 8 10.00 Overcast OVC020 52 43 72% 29.96 0.0
06 04:15 NE 10 10.00 Overcast OVC020 52 43 72% 29.95 0.0
06 03:55 NE 9 10.00 Overcast OVC018 52 43.7 74% 29.95 0.0
06 03:35 N 12 G 18 10.00 Overcast OVC018 52.2 43.9 74% 29.94 0.0
06 03:15 NE 8 10.00 Overcast OVC016 52.2 45.5 78% 29.95 0.0
06 02:55 NE 9 10.00 Overcast OVC018 52.5 44.8 75% 29.93 0.0
06 02:35 NE 8 10.00 Overcast OVC018 52.7 44.6 74% 29.91 0.0
06 02:15 NE 7 10.00 Overcast OVC018 52.7 44.4 74% 29.93 0.0
06 01:55 NE 7 10.00 Overcast OVC018 52.7 44.2 73% 29.92 0.0
06 01:35 NE 10 10.00 Overcast OVC018 52.9 44.4 73% 29.91 0.0
06 01:15 NE 9 G 16 10.00 Overcast OVC018 52.9 44.6 74% 29.9 0.0
06 00:55 NE 10 10.00 Overcast OVC020 52.9 44.1 59.5 52.9 72% 29.91 0.0
06 00:35 NE 13 G 18 10.00 Overcast OVC020 53.1 44.1 72% 29.9 0.0
06 00:15 NE 10 10.00 Overcast OVC020 53.4 44.6 72% 29.91 0.0
05 23:55 NE 9 G 16 10.00 Overcast OVC020 53.6 44.6 72% 29.92 0.0
05 23:35 NE 12 10.00 Overcast OVC020 53.8 44.6 71% 29.91 0.0
05 23:15 NE 8 10.00 Overcast OVC022 53.8 44.8 72% 29.91 0.0
05 22:55 NE 9 10.00 Mostly Cloudy BKN022 53.6 44.2 71% 29.89 0.0
05 22:35 NE 10 10.00 Partly Cloudy SCT024 54.1 44.6 70% 29.88 0.0
05 22:15 NE 8 10.00 Fair CLR 54.5 43.9 68% 29.87 0.0
05 21:55 NE 12 10.00 Fair CLR 55 44.1 67% 29.87 0.0
05 21:35 NE 13 10.00 Fair CLR 55.6 44.1 65% 29.86 0.0
05 21:15 NE 12 G 16 10.00 Fair CLR 55.9 44.2 65% 29.86 0.0
05 20:55 NE 13 G 18 10.00 Fair CLR 56.7 44.6 64% 29.84 0.0
05 20:35 NE 8 G 17 10.00 Fair CLR 57.6 45 63% 29.84 0.0
05 20:15 NE 10 10.00 Fair CLR 57.9 45.3 63% 29.82 0.0
05 19:55 NE 12 10.00 Partly Cloudy SCT028 58.3 45.5 63% 29.82 0.0
05 19:35 NE 15 10.00 Partly Cloudy SCT028 58.8 45.7 62% 29.8 0.0
05 19:15 N 16 G 22 10.00 Overcast OVC028 59.4 45.9 61% 29.8 0.0
05 18:55 NE 15 G 22 10.00 Mostly Cloudy BKN028 59.5 46 71.2 59.5 61% 29.8 0.0
05 18:35 N 15 G 23 10.00 Fair CLR 60.3 46.4 60% 29.8 0.0
05 18:15 N 12 G 23 10.00 Fair CLR 61 46.4 59% 29.79 0.0
05 17:55 NE 15 G 22 10.00 Fair CLR 61.7 46.6 58% 29.81 0.0
05 17:35 N 16 G 23 10.00 Fair CLR 62.4 47.1 58% 29.81 0.0
05 17:15 N 17 G 24 10.00 Fair CLR 63.7 47.7 56% 29.8 0.0
05 16:55 N 13 10.00 Fair CLR 65.3 48.4 55% 29.8 0.0
05 16:35 N 14 G 21 10.00 Fair CLR 66.4 48.6 53% 29.81 0.0
05 16:15 N 15 10.00 Fair CLR 68 48.4 50% 29.8 0.0
05 15:55 N 13 G 21 10.00 Fair CLR 68.7 48.2 48% 29.79 0.0
05 15:35 N 13 10.00 Fair CLR 70 48 46% 29.78 0.0
05 15:15 N 13 G 20 10.00 Fair CLR 70.7 47.1 43% 29.79 0.0
05 14:55 N 10 G 18 10.00 Partly Cloudy SCT034 69.8 47.7 45% 29.79 0.0
05 14:35 N 15 G 23 10.00 Partly Cloudy SCT034 69.3 47.3 46% 29.78 0.0
05 14:15 N 16 G 24 10.00 Fair CLR 69.6 47.5 45% 29.78 0.0
05 13:55 N 17 G 26 10.00 Fair CLR 70.7 47.7 44% 29.77 0.0
05 13:35 N 18 G 24 10.00 Fair CLR 69.3 48 47% 29.77 0.0
05 13:15 N 15 G 22 10.00 Fair CLR 70.9 48.9 46% 29.79 0.0
05 12:55 N 14 G 20 10.00 Fair CLR 70 49.5 77.5 69.1 48% 29.78 0.0
05 12:35 N 16 G 25 10.00 Fair CLR 70.2 49.3 48% 29.77 0.0
05 12:15 N 15 G 23 10.00 Fair CLR 71.1 50.2 48% 29.77 0.0
05 11:55 N 18 G 24 10.00 Fair CLR 70.3 51.1 51% 29.75 0.0
05 11:35 N 20 G 24 10.00 Fair CLR 69.6 52 54% 29.73 0.0
05 11:15 N 18 G 24 10.00 Fair CLR 70.7 53.6 55% 29.72 0.0
05 10:55 N 18 G 25 10.00 Fair CLR 72 54.9 55% 29.7 0.0
05 10:35 N 18 G 26 10.00 Fair CLR 73 55.9 55% 29.69 0.0
05 10:15 N 20 G 24 10.00 Fair CLR 73.6 57.6 57% 29.67 0.0
05 09:55 N 15 G 22 10.00 Fair CLR 73.4 54.9 52% 29.68 0.0
05 09:35 NW 18 10.00 Fair CLR 74.1 45 35% 29.67 0.0
05 09:15 NW 16 10.00 Fair CLR 77 35.2 22% 77 29.64 0.0
05 08:55 NW 13 10.00 Fair CLR 76.5 37.2 24% 77 29.63 0.0
05 08:35 W 13 10.00 Fair CLR 76.1 44.8 33% 78 29.62 0.0
05 08:15 W 8 10.00 Fair CLR 72.1 54.3 54% 29.6 0.0
05 07:55 SW 9 10.00 Fair CLR 70.7 55.8 59% 29.59 0.0
05 07:35 SW 7 10.00 Fair CLR 69.4 55.8 62% 29.58 0.0
05 07:15 SW 7 10.00 Fair CLR 69.6 55.6 61% 29.57 0.0
05 06:55 SW 8 10.00 Fair CLR 69.8 55.6 77.4 68.4 61% 29.57 0.0
05 06:35 SW 9 10.00 Fair CLR 68.9 55.6 63% 29.56 0.0
05 06:15 SW 8 10.00 Fair CLR 68.5 55.6 63% 29.56 0.0
05 05:55 SW 9 10.00 Fair CLR 70.9 55.8 59% 29.55 0.0
05 05:35 SW 10 10.00 Fair CLR 72.1 55.9 57% 29.54 0.0
05 05:15 SW 12 10.00 Fair CLR 73.4 55.8 54% 29.54 0.0
05 04:55 SW 10 10.00 Fair CLR 73.8 55.6 53% 29.54 0.0
05 04:35 SW 12 10.00 Fair CLR 72.9 55.8 55% 29.54 0.0
05 04:15 SW 9 10.00 Fair CLR 71.2 55.9 59% 29.54 0.0
05 03:55 S 8 10.00 Fair CLR 72 55.9 57% 29.55 0.0
05 03:35 SW 7 10.00 Fair CLR 73.9 55.4 52% 29.55 0.0
05 03:15 SW 10 10.00 Fair CLR 73.8 55.4 53% 29.55 0.0
05 02:55 S 10 10.00 Fair CLR 73.8 55.6 53% 29.55 0.0
05 02:35 S 12 10.00 Fair CLR 74.8 55.9 52% 29.56 0.0
05 02:15 S 13 10.00 Fair CLR 76.1 56.3 50% 78 29.57 0.0
05 01:55 S 14 G 17 10.00 Fair CLR 75.9 57.2 52% 78 29.57 0.0
05 01:35 S 12 10.00 Fair CLR 75.7 58.1 54% 78 29.58 0.0
05 01:15 S 12 10.00 Fair CLR 76.3 59.4 56% 78 29.58 0.0
05 00:55 S 13 G 17 10.00 Fair CLR 77.4 60.1 91 77.4 55% 79 29.58 0.0
05 00:35 S 12 10.00 Fair CLR 77.9 59.9 54% 79 29.58 0.0
05 00:15 S 12 10.00 Fair CLR 78.8 59.9 52% 80 29.59 0.0
04 23:55 S 12 10.00 Fair CLR 78.8 60.1 53% 80 29.59 0.0
04 23:35 S 13 G 17 10.00 Fair CLR 79 60.8 54% 80 29.59 0.0
04 23:15 S 15 G 20 10.00 Fair CLR 79.7 61 53% 81 29.59 0.0
04 22:55 S 13 10.00 Fair CLR 79.9 61 53% 81 29.6 0.0
04 22:35 S 16 G 20 10.00 Fair CLR 80.6 60.8 51% 81 29.59 0.0
04 22:15 S 15 10.00 Fair CLR 81.1 60.8 50% 82 29.59 0.0
04 21:55 S 17 G 23 10.00 Fair CLR 81.5 60.4 49% 82 29.59 0.0
04 21:35 S 17 10.00 Fair CLR 82.4 59.9 47% 83 29.59 0.0
04 21:15 S 17 G 25 10.00 Fair CLR 83.3 59 44% 83 29.58 0.0
04 20:55 S 15 G 25 10.00 Fair CLR 84.4 57.2 40% 84 29.58 0.0
04 20:35 S 20 G 25 10.00 Fair CLR 85.6 56.1 37% 84 29.57 0.0
04 20:15 S 20 G 24 10.00 Fair CLR 86.9 54.9 34% 85 29.56 0.0
04 19:55 S 20 G 25 10.00 Fair CLR 88.2 54.3 32% 86 29.57 0.0
04 19:35 S 18 G 24 10.00 Fair CLR 89.4 49.6 25% 86 29.57 0.0
04 19:15 S 14 10.00 Fair CLR 90.7 48.6 24% 87 29.57 0.0
04 18:55 S 21 10.00 Fair and Breezy CLR 91.2 48.4 96.1 88 23% 88 29.57 0.0
04 18:35 S 18 G 29 10.00 Partly Cloudy SCT120 91.6 48.7 23% 88 29.58 0.0
04 18:15 SW 20 G 29 10.00 Mostly Cloudy SCT070 SCT080 BKN120 92.1 49.1 23% 89 29.59 0.0
04 17:55 SW 21 G 24 10.00 Mostly Cloudy and Breezy SCT060 SCT070 BKN120 91.9 49.5 23% 89 29.59 0.0
04 17:35 SW 20 G 23 10.00 Fair CLR 92.7 46.2 20% 89 29.58 0.0
04 17:15 SW 20 G 29 10.00 Fair CLR 94.6 46.2 19% 91 29.58 0.0
04 16:55 SW 20 G 26 10.00 Fair CLR 95.2 47.3 19% 92 29.59 0.0
04 16:35 S 18 G 26 10.00 Fair CLR 95 47.3 20% 91 29.6 0.0
04 16:15 S 21 G 26 10.00 Fair and Breezy CLR 94.3 47.7 20% 91 29.61 0.0
04 15:55 S 18 10.00 Fair CLR 95.4 46.9 19% 92 29.63 0.0
04 15:35 SW 21 G 25 10.00 Fair and Breezy CLR 95.5 47.5 19% 92 29.64 0.0
04 15:15 SW 21 G 25 10.00 Fair and Breezy CLR 94.3 48.9 21% 91 29.65 0.0
04 14:55 SW 18 G 25 10.00 Fair CLR 93.9 48 21% 90 29.66 0.0
04 14:35 SW 13 G 23 10.00 Fair CLR 93.6 49.1 22% 90 29.67 0.0
04 14:15 SW 16 G 26 10.00 Fair CLR 92.3 49.1 23% 89 29.69 0.0
04 13:55 SW 17 G 24 10.00 Fair CLR 91.2 49.5 24% 88 29.7 0.0
04 13:35 SW 17 G 26 10.00 Fair CLR 89.4 49.5 25% 86 29.71 0.0
04 13:15 SW 17 G 23 10.00 Fair CLR 88.9 49.8 26% 86 29.72 0.0
04 12:55 SW 20 G 25 10.00 Fair CLR 87.4 51.1 87.4 63 29% 85 29.73 0.0
04 12:35 SW 17 10.00 Fair CLR 84 51.3 32% 82 29.74 0.0
04 12:15 SW 17 G 23 10.00 Fair CLR 82.8 51.1 33% 81 29.75 0.0
04 11:55 SW 16 10.00 Fair CLR 82.6 50.9 33% 81 29.76 0.0
04 11:35 SW 16 10.00 Fair CLR 79.9 50 35% 79 29.76 0.0
04 11:15 SW 16 G 24 10.00 Fair CLR 77.9 49.8 37% 79 29.78 0.0
04 10:55 SW 18 G 25 10.00 Fair CLR 77.2 49.5 38% 78 29.79 0.0
04 10:35 SW 20 G 29 10.00 Fair CLR 75.4 49.5 40% 78 29.79 0.0
04 10:15 SW 21 10.00 Fair and Breezy CLR 73.2 50 44% 29.79 0.0
04 09:55 SW 18 G 23 10.00 Fair CLR 71.4 50 47% 29.79 0.0
04 09:35 SW 17 10.00 Fair CLR 69.6 49.6 49% 29.8 0.0
04 09:15 S 17 G 23 10.00 Fair CLR 68.7 49.3 50% 29.81 0.0
04 08:55 S 16 G 20 10.00 Fair CLR 67.5 49.1 52% 29.8 0.0
04 08:35 S 15 10.00 Fair CLR 66.6 49.1 54% 29.81 0.0
04 08:15 S 13 10.00 Fair CLR 65.5 48.7 55% 29.8 0.0
04 07:55 S 14 10.00 Fair CLR 64.4 48.4 56% 29.8 0.0
04 07:35 S 14 10.00 Fair CLR 63.5 48.2 58% 29.79 0.0
04 07:15 S 14 10.00 Fair CLR 63.1 48.2 58% 29.79 0.0
04 06:55 S 13 10.00 Fair CLR 63 48.2 69.1 61.9 59% 29.79 0.0
04 06:35 S 10 10.00 Fair CLR 62.8 47.7 58% 29.8 0.0
04 06:15 S 12 10.00 Fair CLR 62.8 47.7 58% 29.8 0.0
04 05:55 S 10 10.00 Fair CLR 62.1 47.7 59% 29.8 0.0
04 05:35 S 9 10.00 Fair CLR 61.9 47.3 59% 29.82 0.0
04 05:15 S 8 10.00 Fair CLR 62.4 46.8 57% 29.82 0.0
04 04:55 S 10 10.00 Partly Cloudy SCT120 63 46.4 55% 29.83 0.0
04 04:35 S 10 10.00 Partly Cloudy SCT120 63.1 46 54% 29.84 0.0
04 04:15 S 10 10.00 Fair CLR 63.5 45.7 52% 29.84 0.0
04 03:55 S 12 10.00 Fair CLR 63.9 45.5 51% 29.84 0.0
04 03:35 S 12 10.00 Fair CLR 64 45.3 51% 29.84 0.0
04 03:15 S 13 10.00 Fair CLR 64.9 45.1 49% 29.85 0.0
04 02:55 S 14 10.00 Fair CLR 65.3 45 48% 29.86 0.0
04 02:35 S 14 10.00 Fair CLR 66.2 45 46% 29.86 0.0
04 02:15 S 13 10.00 Fair CLR 66.6 45 46% 29.88 0.0
04 01:55 S 15 10.00 Fair CLR 67.5 44.8 44% 29.88 0.0
04 01:35 S 16 G 22 10.00 Fair CLR 68.2 44.6 43% 29.88 0.0
04 01:15 S 16 10.00 Fair CLR 68.9 44.2 41% 29.89 0.0
04 00:55 S 16 10.00 Fair CLR 69.1 44.1 82.6 69.1 41% 29.9 0.0
04 00:35 S 16 G 22 10.00 Fair CLR 69.3 44.1 40% 29.9 0.0
04 00:15 S 16 G 20 10.00 Fair CLR 69.6 43.9 40% 29.91 0.0
03 23:55 S 16 10.00 Fair CLR 70.2 43.7 39% 29.91 0.0
03 23:35 S 16 10.00 Fair CLR 70.7 43.3 37% 29.91 0.0
03 23:15 S 17 G 24 10.00 Fair CLR 71.2 42.8 36% 0 0.0
03 22:55 S 18 G 28 10.00 Fair CLR 72.1 42.3 34% 29.92 0.0
03 22:35 S 18 G 25 10.00 Fair CLR 72.5 41.9 33% 29.92 0.0
03 22:15 S 16 G 23 10.00 Fair CLR 72.7 42.1 33% 29.92 0.0
03 21:55 S 18 10.00 Fair CLR 73.4 42.8 33% 0 0.0
03 21:35 S 14 10.00 Fair CLR 73.8 42.4 33% 29.91 0.0
03 21:15 S 16 10.00 Fair CLR 75.2 42.1 31% 77 29.91 0.0
03 20:55 S 16 10.00 Fair CLR 76.1 42.1 30% 77 29.91 0.0
03 20:35 S 16 G 20 10.00 Fair CLR 77 42.1 29% 78 29.9 0.0
03 20:15 S 14 10.00 Fair CLR 77.9 41.2 27% 78 29.9 0.0
03 19:55 S 18 G 23 10.00 Fair CLR 79.7 40.6 25% 79 29.9 0.0
03 19:35 S 18 10.00 Fair CLR 81 40.8 24% 79 29.9 0.0
03 19:15 S 15 10.00 Fair CLR 82.4 41.2 23% 80 29.91 0.0
03 18:55 S 18 G 23 10.00 Fair CLR 82.8 40.1 86.2 82 22% 80 29.91 0.0
03 18:35 SW 18 G 25 10.00 Fair CLR 84.2 39.7 21% 81 29.92 0.0
03 18:15 SW 16 G 21 10.00 Fair CLR 84 39.7 21% 81 29.92 0.0
03 17:55 S 15 G 25 10.00 Fair CLR 84.2 40.3 21% 81 29.93 0.0
03 17:35 SW 15 10.00 Fair CLR 84.6 39 20% 82 29.93 0.0
03 17:15 SW 15 G 24 10.00 Fair CLR 85.1 39.2 20% 82 29.94 0.0
03 16:55 SW 16 G 24 10.00 Fair CLR 85.6 38.7 19% 82 29.95 0.0
03 16:35 S 18 G 23 10.00 Fair CLR 84.9 38.8 19% 82 29.96 0.0
03 16:15 SW 20 G 29 10.00 Fair CLR 85.5 39.2 19% 82 29.97 0.0
03 15:55 SW 16 G 24 10.00 Fair CLR 85.6 38.1 19% 82 29.99 0.0
03 15:35 S 18 G 28 10.00 Fair CLR 84.6 38.3 19% 82 29.99 0.0
03 15:15 S 23 G 26 10.00 Fair and Breezy CLR 85.1 38.7 19% 82 30.01 0.0
03 14:55 SW 15 G 24 10.00 Fair CLR 84.4 38.1 19% 82 30.02 0.0
03 14:35 SW 20 G 26 10.00 Fair CLR 84.6 38.5 19% 82 30.03 0.0
03 14:15 SW 16 G 23 10.00 Fair CLR 83.5 38.3 20% 81 30.04 0.0
03 13:55 SW 15 G 29 10.00 Fair CLR 83.7 38.8 20% 81 30.05 0.0
03 13:35 SW 18 G 26 10.00 Fair CLR 83.3 38.8 21% 81 30.06 0.0
03 13:15 SW 16 G 25 10.00 Fair CLR 82.9 39 21% 81 30.07 0.0
03 12:55 SW 15 G 26 10.00 Fair CLR 82.4 34.9 82.6 53.1 18% 80 30.08 0.0
03 12:35 SW 15 G 25 10.00 Fair CLR 82.2 39.9 22% 80 30.09 0.0
03 12:15 SW 15 G 25 10.00 Fair CLR 80.6 42.1 26% 79 30.1 0.0
03 11:55 W 16 G 23 10.00 Fair CLR 79.9 43.5 28% 79 30.11 0.0
03 11:35 W 17 G 21 10.00 Fair CLR 79.5 44.8 29% 79 30.11 0.0
03 11:15 W 15 G 22 10.00 Fair CLR 77.9 44.6 31% 78 30.12 0.0
03 10:55 SW 15 G 22 10.00 Fair CLR 77 45 32% 78 30.12 0.0
03 10:35 SW 17 G 22 10.00 Fair CLR 75.7 44.6 33% 77 30.13 0.0
03 10:15 SW 14 G 20 10.00 Fair CLR 74.5 45 35% 30.13 0.0
03 09:55 SW 14 G 18 10.00 Fair CLR 71.6 45.1 39% 30.13 0.0
03 09:35 SW 12 10.00 Fair CLR 69.1 45.3 43% 30.13 0.0
03 09:15 SW 10 10.00 Fair CLR 67.1 45.5 46% 30.13 0.0
03 08:55 SW 13 10.00 Fair CLR 64.8 45.7 50% 30.13 0.0
03 08:35 SW 10 10.00 Fair CLR 61.7 45.5 56% 30.12 0.0
03 08:15 SW 10 10.00 Fair CLR 59 45.3 61% 30.12 0.0
03 07:55 SW 9 10.00 Fair CLR 55.8 44.8 67% 30.12 0.0
Date Time (cdt) Wind (mph) Vis. (mi.) Weather Sky Cond. Air Dwpt Max. Min. Relative Humidity Wind Chill (°F) Heat Index (°F) altimeter (in) sea level (mb) 1 hr 3 hr 6 hr
6 hour
Temperature (ºF) Pressure Precipitation (in)